Historique des mesures à Cassis (13260), France
Quotidien Résumé Juillet 18, 2017 Unités:  Métrique    US   Métrique/US
« Précédent (Jour)
Suivant (Jour) »
Quotidien Hebdomadaire Mensuel Annuel Période au choix
  Maximum: Minimum: Moyenne:
Température: TemperatureC °C 22.1 °C 25.3 °C
Point de rosée: DewpointC °C 8.6 °C 13 °C
Humidité: Humidity % 37 % 44 %
Vitesse du vent: 0 km/h 0 km/h 3.5 km/h
Rafales: 0 km/h - -
Vent:- - SE
Pression: PressurehPa hPa 1013.1 hPa -
Précipitations: 0.0 mm    
Historical Graphs
 
 
Mesures pour : Juillet 18, 2017
Heure Temperature Point de rosée Pression Vent Vitesse du vent Rafales Humidité Pluie (par heure) Conditions
TemperatureC °C DewpointC °C PressurehPa hPa Calm     Humidity % HourlyPrecipMM mm SoftwareType W/m2
00:11 23.4 °C 11.7 °C 1014.8 hPa Calm     48 % 0.0 mm open2300-1.11 W/m2
01:11 23.3 °C 11.6 °C 1014.8 hPa North 2.3 km/h 8.9 km/h 48 % 0.0 mm open2300-1.11 W/m2
02:11 22.9 °C 10.6 °C 1014.4 hPa North 2.9 km/h 6.4 km/h 46 % 0.0 mm open2300-1.11 W/m2
03:11 22.9 °C 9.9 °C 1014.4 hPa NNE 2.9 km/h 2.9 km/h 44 % 0.0 mm open2300-1.11 W/m2
04:11 22.4 °C 9.5 °C 1014.4 hPa North 3.4 km/h 3.4 km/h 44 % 0.0 mm open2300-1.11 W/m2
05:11 22.6 °C 8.7 °C 1014.1 hPa NNW 5.6 km/h 5.6 km/h 41 % 0.0 mm open2300-1.11 W/m2
06:11 22.1 °C 8.6 °C 1014.1 hPa North 2.9 km/h 5.1 km/h 42 % 0.0 mm open2300-1.11 W/m2
07:11 22.1 °C 8.6 °C 1014.4 hPa Calm     42 % 0.0 mm open2300-1.11 W/m2
08:11 25.1 °C 10.6 °C 1014.8 hPa Calm     40 % 0.0 mm open2300-1.11 W/m2
09:11 25.6 °C 11.7 °C 1014.8 hPa SSE 7.6 km/h 10.3 km/h 42 % 0.0 mm open2300-1.11 W/m2
10:11 25.9 °C 15.6 °C 1015.1 hPa Calm   9.3 km/h 53 % 0.0 mm open2300-1.11 W/m2
11:11 29.4 °C 17.6 °C 1015.1 hPa WSW 8 km/h 8 km/h 49 % 0.0 mm open2300-1.11 W/m2
12:11 30.6 °C 16.9 °C 1014.8 hPa SW 7.6 km/h 7.6 km/h 44 % 0.0 mm open2300-1.11 W/m2
13:11 30.9 °C 17.6 °C 1014.8 hPa SSW 2.9 km/h 23 km/h 45 % 0.0 mm open2300-1.11 W/m2
14:11 31.4 °C 14.9 °C 1014.4 hPa SE 5.1 km/h 8 km/h 37 % 0.0 mm open2300-1.11 W/m2
15:11 30.9 °C 17.2 °C 1014.4 hPa Calm   14 km/h 44 % 0.0 mm open2300-1.11 W/m2
16:11 30.4 °C 14.9 °C 1014.1 hPa SSE 12.2 km/h 12.2 km/h 39 % 0.0 mm open2300-1.11 W/m2
17:11 29.9 °C 16.3 °C 1013.8 hPa South 5.6 km/h 7.6 km/h 44 % 0.0 mm open2300-1.11 W/m2
18:11 29.3 °C 16.1 °C 1013.4 hPa SSW 15 km/h 15 km/h 45 % 0.0 mm open2300-1.11 W/m2
19:11 28.3 °C 15.2 °C 1013.4 hPa South 5.6 km/h 9.8 km/h 45 % 0.0 mm open2300-1.11 W/m2
20:11 27.4 °C 15.4 °C 1013.1 hPa Calm   3.4 km/h 48 % 0.0 mm open2300-1.11 W/m2
21:11 26.3 °C 15.4 °C 1013.1 hPa Calm     51 % 0.0 mm open2300-1.11 W/m2
22:11 25.3 °C 15.6 °C 1013.4 hPa Calm     55 % 0.0 mm open2300-1.11 W/m2
23:11 24.3 °C 14.9 °C 1013.1 hPa Calm     56 % 0.0 mm open2300-1.11 W/m2
Observations météo à CASSIS
WU-History script by Weather Underground - 1 mb